Time;durP1;ratioP1;P1;durP2;ratioP2;P2;SDS_P1;SDS_P2;PMS_P1;PMS_P2;Temp;Humidity;BMP_temperature;BMP_pressure;BME280_temperature;BME280_humidity;BME280_pressure;Samples;Min_cycle;Max_cycle;Signal;HPM_P1;HPM_P2
2021/03/13 00:01:20;;;;;;;12.17;8.97;;;;;;;;;;6380552;22;20394;-93
2021/03/13 00:03:46;;;;;;;11.93;8.80;;;;;;;;;;6380686;22;20432;-93
2021/03/13 00:06:12;;;;;;;11.30;9.30;;;;;;;;;;6382320;22;20454;-94
2021/03/13 00:08:39;;;;;;;10.60;9.33;;;;;;;;;;6383067;22;20399;-93
2021/03/13 00:11:06;;;;;;;9.60;8.60;;;;;;;;;;6381330;22;20441;-92
2021/03/13 00:13:32;;;;;;;11.60;9.67;;;;;;;;;;6381701;22;20398;-93
2021/03/13 00:15:58;;;;;;;9.40;8.40;;;;;;;;;;6379706;22;20402;-92
2021/03/13 00:18:24;;;;;;;10.00;8.93;;;;;;;;;;6380999;22;20406;-93
2021/03/13 00:20:51;;;;;;;9.87;8.63;;;;;;;;;;6380220;22;20410;-92
2021/03/13 00:23:17;;;;;;;11.00;9.80;;;;;;;;;;6381526;22;20402;-92
2021/03/13 00:25:43;;;;;;;13.07;10.40;;;;;;;;;;6379534;22;20463;-92
2021/03/13 00:28:10;;;;;;;14.43;10.63;;;;;;;;;;6380967;22;20432;-93
2021/03/13 00:30:37;;;;;;;15.87;10.53;;;;;;;;;;6379772;22;20410;-93
2021/03/13 00:33:06;;;;;;;12.53;10.20;;;;;;;;;;6380957;22;20399;-92
2021/03/13 00:35:32;;;;;;;14.13;10.40;;;;;;;;;;6380547;22;20406;-92
2021/03/13 00:37:59;;;;;;;16.93;13.13;;;;;;;;;;6380723;22;20406;-92
2021/03/13 00:40:27;;;;;;;13.97;10.50;;;;;;;;;;6379929;22;20410;-94
2021/03/13 00:42:53;;;;;;;14.63;11.37;;;;;;;;;;6381694;22;20410;-93
2021/03/13 00:45:21;;;;;;;13.00;10.47;;;;;;;;;;6385650;22;20449;-92
2021/03/13 00:47:47;;;;;;;13.00;11.13;;;;;;;;;;6383623;22;20402;-91
2021/03/13 00:50:14;;;;;;;13.43;10.60;;;;;;;;;;6380918;22;20969;-93
2021/03/13 00:52:41;;;;;;;14.43;10.63;;;;;;;;;;6378660;22;20434;-94
2021/03/13 00:55:08;;;;;;;13.80;10.77;;;;;;;;;;6382225;22;20410;-95
2021/03/13 00:57:34;;;;;;;11.63;10.30;;;;;;;;;;6380050;22;20440;-93
2021/03/13 01:00:00;;;;;;;12.40;10.87;;;;;;;;;;6382257;22;20432;-93
2021/03/13 01:02:27;;;;;;;16.13;11.23;;;;;;;;;;6379339;22;20399;-93
2021/03/13 01:04:53;;;;;;;14.23;10.87;;;;;;;;;;6380086;22;20453;-93
2021/03/13 01:07:20;;;;;;;13.33;10.67;;;;;;;;;;6379732;22;20406;-93
2021/03/13 01:09:46;;;;;;;12.10;9.90;;;;;;;;;;6381652;22;20409;-93
2021/03/13 01:12:12;;;;;;;13.73;11.53;;;;;;;;;;6380194;22;20402;-93
2021/03/13 01:14:38;;;;;;;12.97;10.57;;;;;;;;;;6380583;22;20413;-94
2021/03/13 01:17:04;;;;;;;12.73;10.33;;;;;;;;;;6379370;22;20398;-93
2021/03/13 01:19:31;;;;;;;13.37;11.27;;;;;;;;;;6379132;22;20410;-93
2021/03/13 01:21:57;;;;;;;13.97;11.30;;;;;;;;;;6379063;22;20411;-93
2021/03/13 01:24:23;;;;;;;15.47;10.67;;;;;;;;;;6380637;22;20415;-93
2021/03/13 01:26:49;;;;;;;13.63;10.67;;;;;;;;;;6379728;22;20547;-93
2021/03/13 01:29:15;;;;;;;14.50;11.53;;;;;;;;;;6380595;22;20414;-93
2021/03/13 01:31:41;;;;;;;14.50;11.27;;;;;;;;;;6380380;22;20403;-93
2021/03/13 01:34:07;;;;;;;12.63;10.63;;;;;;;;;;6380360;22;20486;-92
2021/03/13 01:36:34;;;;;;;12.23;10.93;;;;;;;;;;6381038;22;20417;-94
2021/03/13 01:39:00;;;;;;;13.23;10.60;;;;;;;;;;6379618;22;20398;-93
2021/03/13 01:41:26;;;;;;;13.13;11.40;;;;;;;;;;6381173;22;20410;-93
2021/03/13 01:43:52;;;;;;;12.90;11.47;;;;;;;;;;6378161;22;20439;-92
2021/03/13 01:46:18;;;;;;;16.63;11.37;;;;;;;;;;6379398;22;20450;-93
2021/03/13 01:48:50;;;;;;;12.27;10.63;;;;;;;;;;6377535;22;20428;-92
2021/03/13 01:51:16;;;;;;;12.40;10.93;;;;;;;;;;6378092;22;20445;-92
2021/03/13 01:53:43;;;;;;;16.10;11.10;;;;;;;;;;6378771;22;20417;-92
2021/03/13 01:56:09;;;;;;;13.20;10.87;;;;;;;;;;6379416;22;20413;-91
2021/03/13 01:58:35;;;;;;;13.67;11.07;;;;;;;;;;6380473;22;21300;-93
2021/03/13 02:01:02;;;;;;;11.70;9.80;;;;;;;;;;6380289;22;20414;-92
2021/03/13 02:03:28;;;;;;;12.57;10.23;;;;;;;;;;6379354;22;20411;-93
2021/03/13 02:05:54;;;;;;;16.90;11.57;;;;;;;;;;6381007;22;20461;-94
2021/03/13 02:08:24;;;;;;;12.37;10.80;;;;;;;;;;6381432;22;20412;-91
2021/03/13 02:10:57;;;;;;;12.80;11.43;;;;;;;;;;6380979;22;20399;-92
2021/03/13 02:13:27;;;;;;;13.50;11.40;;;;;;;;;;6379909;22;20763;-94
2021/03/13 02:15:58;;;;;;;15.57;11.90;;;;;;;;;;6377561;22;20412;-91
2021/03/13 02:18:29;;;;;;;12.93;11.30;;;;;;;;;;6379474;22;20410;-92
2021/03/13 02:21:12;;;;;;;14.40;11.50;;;;;;;;;;6378592;22;20436;-92
2021/03/13 02:23:54;;;;;;;15.10;11.77;;;;;;;;;;6380933;22;20410;-94
2021/03/13 02:26:36;;;;;;;15.03;12.33;;;;;;;;;;6380073;22;20446;-92
2021/03/13 02:29:15;;;;;;;15.27;11.93;;;;;;;;;;6385754;22;20429;-95
2021/03/13 02:31:44;;;;;;;15.97;11.40;;;;;;;;;;6381344;22;20410;-94
2021/03/13 02:34:10;;;;;;;13.50;11.20;;;;;;;;;;6379828;22;20407;-92
2021/03/13 02:36:37;;;;;;;18.23;10.90;;;;;;;;;;6381017;22;20414;-93
2021/03/13 02:39:04;;;;;;;13.07;11.63;;;;;;;;;;6382180;22;20404;-94
2021/03/13 02:41:33;;;;;;;12.23;10.77;;;;;;;;;;6379647;22;20406;-93
2021/03/13 02:44:00;;;;;;;15.63;12.07;;;;;;;;;;6380331;22;20402;-94
2021/03/13 02:46:27;;;;;;;15.27;12.13;;;;;;;;;;6379905;22;20454;-94
2021/03/13 02:48:55;;;;;;;16.50;11.43;;;;;;;;;;6381400;22;20409;-92
2021/03/13 02:51:24;;;;;;;18.50;13.00;;;;;;;;;;6384178;22;20442;-92
2021/03/13 02:53:50;;;;;;;19.13;14.83;;;;;;;;;;6382670;22;21016;-94
2021/03/13 02:56:17;;;;;;;27.37;16.83;;;;;;;;;;6383244;22;20424;-92
2021/03/13 02:58:44;;;;;;;16.90;12.70;;;;;;;;;;6382231;22;20432;-94
2021/03/13 03:01:11;;;;;;;17.80;13.53;;;;;;;;;;6381614;22;20410;-94
2021/03/13 03:03:37;;;;;;;16.67;13.30;;;;;;;;;;6386502;22;20410;-94
2021/03/13 03:06:06;;;;;;;16.60;12.57;;;;;;;;;;6387798;22;21090;-96
2021/03/13 03:08:33;;;;;;;17.00;11.97;;;;;;;;;;6390911;22;20398;-94
2021/03/13 03:11:01;;;;;;;18.00;13.20;;;;;;;;;;6386905;22;20465;-94
2021/03/13 03:13:27;;;;;;;18.43;13.80;;;;;;;;;;6389020;22;20413;-96
2021/03/13 03:15:54;;;;;;;16.47;12.20;;;;;;;;;;6390458;22;20403;-92
2021/03/13 03:18:25;;;;;;;19.43;14.50;;;;;;;;;;6384650;22;20927;-95
2021/03/13 03:20:51;;;;;;;14.30;12.33;;;;;;;;;;6387058;22;20413;-95
2021/03/13 03:23:19;;;;;;;15.33;12.67;;;;;;;;;;6384621;22;20405;-93
2021/03/13 03:25:45;;;;;;;18.10;13.40;;;;;;;;;;6386215;22;20451;-94
2021/03/13 03:28:13;;;;;;;16.70;13.53;;;;;;;;;;6388105;22;20406;-96
2021/03/13 03:30:40;;;;;;;15.50;12.70;;;;;;;;;;6388257;22;20489;-95
2021/03/13 03:33:09;;;;;;;23.07;12.93;;;;;;;;;;6387067;22;20403;-93
2021/03/13 03:35:36;;;;;;;16.90;12.37;;;;;;;;;;6387004;22;20421;-95
2021/03/13 03:38:02;;;;;;;17.03;11.90;;;;;;;;;;6387274;22;20743;-96
2021/03/13 03:40:30;;;;;;;15.77;12.30;;;;;;;;;;6388923;22;20398;-94
2021/03/13 03:42:59;;;;;;;16.80;13.07;;;;;;;;;;6386145;22;20403;-92
2021/03/13 03:45:25;;;;;;;15.77;13.37;;;;;;;;;;6383217;22;20449;-94
2021/03/13 03:47:52;;;;;;;14.43;11.80;;;;;;;;;;6379964;22;20413;-94
2021/03/13 03:50:18;;;;;;;15.63;12.87;;;;;;;;;;6381158;22;20939;-93
2021/03/13 03:52:47;;;;;;;16.17;13.27;;;;;;;;;;6379579;22;20430;-93
2021/03/13 03:55:16;;;;;;;17.10;12.23;;;;;;;;;;6380846;22;20451;-94
2021/03/13 03:57:44;;;;;;;15.47;12.50;;;;;;;;;;6379389;22;20394;-93
2021/03/13 04:00:10;;;;;;;16.10;11.93;;;;;;;;;;6379767;22;20472;-93
2021/03/13 04:02:37;;;;;;;15.07;12.50;;;;;;;;;;6381492;22;20406;-92
2021/03/13 04:05:05;;;;;;;16.80;12.83;;;;;;;;;;6380440;22;20776;-93
2021/03/13 04:07:31;;;;;;;13.40;11.50;;;;;;;;;;6381369;22;20883;-94
2021/03/13 04:09:57;;;;;;;18.53;11.47;;;;;;;;;;6381098;22;20406;-95
2021/03/13 04:12:24;;;;;;;16.73;12.63;;;;;;;;;;6382079;22;20432;-96
2021/03/13 04:14:52;;;;;;;15.03;12.10;;;;;;;;;;6380251;22;20402;-96
2021/03/13 04:17:18;;;;;;;14.57;11.80;;;;;;;;;;6383903;22;20406;-94
2021/03/13 04:19:50;;;;;;;15.67;11.97;;;;;;;;;;6385833;22;21205;-93
2021/03/13 04:22:17;;;;;;;16.20;12.40;;;;;;;;;;6386185;22;20409;-95
2021/03/13 04:24:44;;;;;;;16.67;12.60;;;;;;;;;;6385367;22;20421;-94
2021/03/13 04:27:10;;;;;;;15.70;11.80;;;;;;;;;;6384987;22;20402;-92
2021/03/13 04:29:36;;;;;;;14.53;11.70;;;;;;;;;;6380276;22;20429;-91
2021/03/13 04:32:04;;;;;;;16.80;13.20;;;;;;;;;;6381552;22;20963;-91
2021/03/13 04:34:30;;;;;;;15.70;11.80;;;;;;;;;;6381092;22;20431;-94
2021/03/13 04:36:57;;;;;;;19.33;11.87;;;;;;;;;;6381614;22;20403;-93
2021/03/13 04:39:23;;;;;;;16.80;13.00;;;;;;;;;;6379467;22;20413;-93
2021/03/13 04:41:51;;;;;;;19.30;13.80;;;;;;;;;;6381680;22;20429;-94
2021/03/13 04:44:17;;;;;;;17.00;13.07;;;;;;;;;;6381664;22;20398;-93
2021/03/13 04:46:44;;;;;;;16.50;13.60;;;;;;;;;;6380617;22;20449;-92
2021/03/13 04:49:11;;;;;;;13.17;11.77;;;;;;;;;;6381261;22;20403;-95
2021/03/13 04:51:38;;;;;;;15.10;12.00;;;;;;;;;;6379389;22;20441;-94
2021/03/13 04:54:05;;;;;;;17.00;12.80;;;;;;;;;;6382021;22;20414;-94
2021/03/13 04:56:35;;;;;;;14.60;11.13;;;;;;;;;;6379615;22;20788;-96
2021/03/13 04:59:01;;;;;;;15.23;12.27;;;;;;;;;;6381720;22;20410;-94
2021/03/13 05:01:27;;;;;;;16.50;13.10;;;;;;;;;;6379906;22;20406;-95
2021/03/13 05:03:53;;;;;;;15.30;11.80;;;;;;;;;;6382802;22;20421;-94
2021/03/13 05:06:20;;;;;;;13.83;11.63;;;;;;;;;;6377292;22;20448;-93
2021/03/13 05:08:46;;;;;;;14.37;11.10;;;;;;;;;;6382601;22;20406;-95
2021/03/13 05:11:12;;;;;;;16.43;12.00;;;;;;;;;;6380519;22;20938;-94
2021/03/13 05:13:38;;;;;;;15.37;11.80;;;;;;;;;;6381607;22;20406;-95
2021/03/13 05:16:05;;;;;;;13.07;11.07;;;;;;;;;;6380544;22;20425;-95
2021/03/13 05:18:31;;;;;;;15.07;12.47;;;;;;;;;;6380942;22;20790;-93
2021/03/13 05:20:56;;;;;;;16.70;12.43;;;;;;;;;;6378500;22;20409;-93
2021/03/13 05:23:23;;;;;;;15.40;12.60;;;;;;;;;;6379726;22;20409;-92
2021/03/13 05:25:49;;;;;;;14.17;12.23;;;;;;;;;;6378923;22;20464;-93
2021/03/13 05:28:15;;;;;;;16.47;11.70;;;;;;;;;;6378518;22;20402;-93
2021/03/13 05:30:41;;;;;;;15.70;12.37;;;;;;;;;;6379755;22;20416;-94
2021/03/13 05:33:07;;;;;;;17.33;11.90;;;;;;;;;;6382075;22;20928;-96
2021/03/13 05:35:37;;;;;;;14.93;12.17;;;;;;;;;;6387075;22;20417;-95
2021/03/13 05:38:07;;;;;;;14.93;11.80;;;;;;;;;;6391589;22;20752;-96
2021/03/13 05:40:34;;;;;;;16.43;11.90;;;;;;;;;;6387755;22;20422;-94
2021/03/13 05:43:00;;;;;;;18.60;13.43;;;;;;;;;;6386726;22;20417;-94
2021/03/13 05:45:27;;;;;;;16.23;12.53;;;;;;;;;;6388191;22;20434;-93
2021/03/13 05:47:54;;;;;;;15.60;12.90;;;;;;;;;;6389382;22;20398;-94
2021/03/13 05:50:20;;;;;;;16.87;11.77;;;;;;;;;;6386374;22;20493;-94
2021/03/13 05:52:47;;;;;;;17.30;12.30;;;;;;;;;;6383226;22;20433;-95
2021/03/13 05:55:17;;;;;;;18.63;12.73;;;;;;;;;;6385215;22;20724;-95
2021/03/13 05:57:44;;;;;;;14.20;11.50;;;;;;;;;;6378747;22;20425;-93
2021/03/13 06:00:10;;;;;;;16.00;13.00;;;;;;;;;;6381310;22;20406;-93
2021/03/13 06:02:36;;;;;;;13.83;11.70;;;;;;;;;;6379593;22;20757;-93
2021/03/13 06:05:03;;;;;;;15.70;12.53;;;;;;;;;;6381318;22;20449;-93
2021/03/13 06:07:30;;;;;;;16.90;12.07;;;;;;;;;;6379976;22;20407;-92
2021/03/13 06:09:57;;;;;;;15.27;12.20;;;;;;;;;;6378972;22;20406;-95
2021/03/13 06:12:23;;;;;;;16.53;12.50;;;;;;;;;;6380428;22;21483;-94
2021/03/13 06:14:50;;;;;;;14.00;11.87;;;;;;;;;;6379656;22;20920;-95
2021/03/13 06:17:17;;;;;;;13.47;11.50;;;;;;;;;;6381916;22;20411;-94
2021/03/13 06:19:47;;;;;;;15.20;12.40;;;;;;;;;;6377685;22;20442;-94
2021/03/13 06:22:31;;;;;;;16.43;12.93;;;;;;;;;;6381393;22;20418;-93
2021/03/13 06:25:15;;;;;;;16.07;12.93;;;;;;;;;;6379004;22;20450;-94
2021/03/13 06:27:41;;;;;;;15.20;12.30;;;;;;;;;;6382217;22;20412;-94
2021/03/13 06:30:10;;;;;;;13.23;11.83;;;;;;;;;;6379980;22;20407;-95
2021/03/13 06:32:36;;;;;;;13.70;12.20;;;;;;;;;;6381931;22;20417;-93
2021/03/13 06:35:17;;;;;;;15.53;12.67;;;;;;;;;;6378422;22;20416;-93
2021/03/13 06:37:43;;;;;;;14.70;12.70;;;;;;;;;;6379764;22;20467;-93
2021/03/13 06:40:10;;;;;;;14.87;11.80;;;;;;;;;;6378122;22;20698;-92
2021/03/13 06:42:36;;;;;;;15.93;11.80;;;;;;;;;;6380455;22;20406;-92
2021/03/13 06:45:03;;;;;;;16.33;12.50;;;;;;;;;;6384041;22;20438;-94
2021/03/13 06:47:31;;;;;;;14.97;12.30;;;;;;;;;;6385962;22;20450;-93
2021/03/13 06:50:07;;;;;;;13.80;12.30;;;;;;;;;;6381437;22;20432;-95
2021/03/13 06:52:33;;;;;;;22.87;18.57;;;;;;;;;;6380556;22;20426;-94
2021/03/13 06:55:00;;;;;;;18.57;15.37;;;;;;;;;;6374368;22;20410;-96
2021/03/13 06:57:26;;;;;;;18.43;15.00;;;;;;;;;;6372063;22;20459;-92
2021/03/13 06:59:56;;;;;;;21.80;19.43;;;;;;;;;;6370912;22;20475;-93
2021/03/13 07:02:22;;;;;;;15.07;13.37;;;;;;;;;;6373193;22;20497;-93
2021/03/13 07:04:49;;;;;;;16.27;12.30;;;;;;;;;;6372187;22;20430;-92
2021/03/13 07:07:27;;;;;;;14.63;12.73;;;;;;;;;;6374051;22;20757;-92
2021/03/13 07:09:53;;;;;;;17.80;14.00;;;;;;;;;;6373725;22;20415;-91
2021/03/13 07:12:27;;;;;;;17.00;13.77;;;;;;;;;;6377429;22;20407;-93
2021/03/13 07:14:56;;;;;;;15.67;13.90;;;;;;;;;;6381395;22;20455;-93
2021/03/13 07:17:23;;;;;;;20.40;14.20;;;;;;;;;;6374994;22;20432;-93
2021/03/13 07:19:50;;;;;;;15.23;12.20;;;;;;;;;;6378175;22;21051;-91
2021/03/13 07:22:16;;;;;;;14.50;11.90;;;;;;;;;;6377288;22;20404;-92
2021/03/13 07:24:43;;;;;;;39.07;35.10;;;;;;;;;;6376981;22;20406;-93
2021/03/13 07:27:10;;;;;;;14.73;13.23;;;;;;;;;;6375807;22;20408;-92
2021/03/13 07:29:38;;;;;;;13.50;12.10;;;;;;;;;;6378185;22;20410;-92
2021/03/13 07:32:05;;;;;;;13.53;12.10;;;;;;;;;;6377613;22;20757;-94
2021/03/13 07:34:31;;;;;;;19.23;12.47;;;;;;;;;;6380288;22;20401;-92
2021/03/13 07:36:59;;;;;;;27.20;22.43;;;;;;;;;;6378190;22;20405;-92
2021/03/13 07:39:27;;;;;;;34.47;28.83;;;;;;;;;;6380558;22;20487;-92
2021/03/13 07:41:56;;;;;;;21.53;18.93;;;;;;;;;;6380430;22;20406;-93
2021/03/13 07:44:22;;;;;;;21.23;13.13;;;;;;;;;;6387602;22;20404;-92
2021/03/13 07:46:49;;;;;;;15.80;12.13;;;;;;;;;;6380672;22;20526;-92
2021/03/13 07:49:15;;;;;;;15.83;10.90;;;;;;;;;;6380970;22;20433;-91
2021/03/13 07:51:41;;;;;;;14.43;12.80;;;;;;;;;;6380068;22;20464;-91
2021/03/13 07:54:08;;;;;;;15.47;12.40;;;;;;;;;;6379589;22;20399;-91
2021/03/13 07:56:35;;;;;;;19.30;14.30;;;;;;;;;;6379699;22;20412;-91
2021/03/13 07:59:02;;;;;;;17.67;15.00;;;;;;;;;;6378420;22;20405;-94
2021/03/13 08:01:45;;;;;;;17.07;12.07;;;;;;;;;;6380042;22;20412;-90
2021/03/13 08:04:34;;;;;;;16.13;14.43;;;;;;;;;;6380097;22;20415;-93
2021/03/13 08:07:00;;;;;;;13.10;11.70;;;;;;;;;;6379211;22;20448;-92
2021/03/13 08:09:27;;;;;;;12.67;11.37;;;;;;;;;;6377426;22;20417;-91
2021/03/13 08:11:53;;;;;;;13.53;11.37;;;;;;;;;;6380351;22;20414;-92
2021/03/13 08:14:30;;;;;;;19.40;13.10;;;;;;;;;;6381958;22;20402;-92
2021/03/13 08:17:04;;;;;;;17.20;15.37;;;;;;;;;;6380103;22;20408;-91
2021/03/13 08:19:33;;;;;;;23.30;19.67;;;;;;;;;;6380797;22;20411;-93
2021/03/13 08:22:09;;;;;;;31.40;25.30;;;;;;;;;;6381744;22;20411;-93
2021/03/13 08:24:44;;;;;;;17.30;14.70;;;;;;;;;;6382324;22;20409;-91
2021/03/13 08:27:10;;;;;;;74.10;53.37;;;;;;;;;;6382904;22;20398;-94
2021/03/13 08:29:53;;;;;;;60.90;45.43;;;;;;;;;;6380419;22;20399;-93
2021/03/13 08:32:33;;;;;;;14.43;12.73;;;;;;;;;;6383482;22;20437;-95
2021/03/13 08:35:05;;;;;;;18.10;14.67;;;;;;;;;;6380662;22;20424;-95
2021/03/13 08:37:45;;;;;;;17.63;13.83;;;;;;;;;;6380782;22;20498;-90
2021/03/13 08:40:22;;;;;;;16.23;11.87;;;;;;;;;;6378611;22;20414;-91
2021/03/13 08:42:48;;;;;;;15.33;12.43;;;;;;;;;;6381194;22;20415;-92
2021/03/13 08:45:15;;;;;;;14.90;12.30;;;;;;;;;;6383000;22;20443;-92
2021/03/13 08:47:42;;;;;;;15.23;13.20;;;;;;;;;;6383527;22;20398;-93
2021/03/13 08:50:08;;;;;;;16.03;14.33;;;;;;;;;;6382450;22;20431;-93
2021/03/13 08:52:34;;;;;;;16.20;14.07;;;;;;;;;;6384093;22;20446;-94
2021/03/13 08:55:01;;;;;;;19.10;16.77;;;;;;;;;;6380057;22;20414;-93
2021/03/13 08:57:44;;;;;;;12.90;11.60;;;;;;;;;;6380706;22;20427;-93
2021/03/13 09:00:15;;;;;;;13.67;12.03;;;;;;;;;;6379372;22;20436;-92
2021/03/13 09:02:41;;;;;;;18.03;16.03;;;;;;;;;;6379865;22;20462;-92
2021/03/13 09:05:08;;;;;;;13.60;12.30;;;;;;;;;;6369974;22;20445;-92
2021/03/13 09:07:34;;;;;;;12.50;11.20;;;;;;;;;;6302280;22;20430;-92
2021/03/13 09:10:00;;;;;;;15.70;13.80;;;;;;;;;;6285385;22;20613;-93
2021/03/13 09:12:29;;;;;;;15.30;12.17;;;;;;;;;;6288652;22;20931;-96
2021/03/13 09:14:57;;;;;;;15.67;11.57;;;;;;;;;;6285399;22;20487;-91
2021/03/13 09:17:24;;;;;;;11.60;10.40;;;;;;;;;;6286174;22;20419;-91
2021/03/13 09:19:51;;;;;;;12.23;10.73;;;;;;;;;;6284915;22;20411;-92
2021/03/13 09:22:18;;;;;;;14.27;9.97;;;;;;;;;;6284572;22;20411;-92
2021/03/13 09:24:44;;;;;;;16.77;15.07;;;;;;;;;;6283821;22;20406;-92
2021/03/13 09:27:10;;;;;;;15.10;13.27;;;;;;;;;;6275740;22;20451;-93
2021/03/13 09:29:37;;;;;;;11.60;10.23;;;;;;;;;;6279890;22;20413;-93
2021/03/13 09:32:04;;;;;;;11.83;10.60;;;;;;;;;;6278270;22;20459;-92
2021/03/13 09:34:32;;;;;;;12.13;10.70;;;;;;;;;;6282988;22;20409;-96
2021/03/13 09:36:58;;;;;;;15.00;13.20;;;;;;;;;;6280332;22;20405;-92
2021/03/13 09:39:25;;;;;;;14.33;12.10;;;;;;;;;;6283474;22;20411;-96
2021/03/13 09:42:08;;;;;;;12.53;10.50;;;;;;;;;;6285585;22;20484;-92
2021/03/13 09:44:35;;;;;;;13.70;10.93;;;;;;;;;;6286792;22;20416;-92
2021/03/13 09:47:08;;;;;;;12.73;10.80;;;;;;;;;;6286387;22;20510;-94
2021/03/13 09:49:35;;;;;;;12.50;11.30;;;;;;;;;;6348471;22;20415;-95
2021/03/13 09:52:01;;;;;;;14.13;12.70;;;;;;;;;;6348028;22;20433;-96
2021/03/13 09:54:27;;;;;;;12.63;11.17;;;;;;;;;;6349642;22;20410;-93
2021/03/13 09:57:07;;;;;;;14.30;12.60;;;;;;;;;;6351267;22;20410;-96
2021/03/13 09:59:33;;;;;;;12.13;10.93;;;;;;;;;;6350277;22;20414;-93
2021/03/13 10:01:59;;;;;;;15.50;11.80;;;;;;;;;;6347119;22;20452;-93
2021/03/13 10:04:25;;;;;;;14.30;10.80;;;;;;;;;;6347666;22;20404;-92
2021/03/13 10:06:53;;;;;;;14.03;11.93;;;;;;;;;;6346815;22;21030;-91
2021/03/13 10:09:19;;;;;;;15.10;11.87;;;;;;;;;;6347765;22;20915;-92
2021/03/13 10:11:45;;;;;;;17.17;12.53;;;;;;;;;;6351057;22;20434;-94
2021/03/13 10:14:18;;;;;;;13.00;11.70;;;;;;;;;;6347748;22;20402;-93
2021/03/13 10:16:44;;;;;;;15.13;13.53;;;;;;;;;;6346976;22;20425;-91
2021/03/13 10:19:25;;;;;;;14.97;12.73;;;;;;;;;;6347545;22;20414;-94
2021/03/13 10:22:05;;;;;;;14.97;12.33;;;;;;;;;;6339470;22;20440;-90
2021/03/13 10:24:31;;;;;;;17.57;12.03;;;;;;;;;;6344055;22;20402;-92
2021/03/13 10:27:04;;;;;;;19.70;17.03;;;;;;;;;;6347542;22;20474;-92
2021/03/13 10:29:30;;;;;;;13.37;11.97;;;;;;;;;;6347707;22;20406;-92
2021/03/13 10:32:01;;;;;;;13.83;11.70;;;;;;;;;;6348256;22;20482;-91
2021/03/13 10:34:32;;;;;;;17.40;15.60;;;;;;;;;;6349619;22;20418;-94
2021/03/13 10:36:58;;;;;;;18.40;16.50;;;;;;;;;;6350987;22;20786;-93
2021/03/13 10:39:25;;;;;;;34.00;24.97;;;;;;;;;;6353913;22;20407;-93
2021/03/13 10:41:55;;;;;;;14.10;12.70;;;;;;;;;;6350628;22;20408;-90
2021/03/13 10:44:21;;;;;;;15.50;12.07;;;;;;;;;;6347932;22;20716;-91
2021/03/13 10:46:47;;;;;;;15.90;13.63;;;;;;;;;;6347415;22;20461;-89
2021/03/13 10:49:13;;;;;;;16.30;13.20;;;;;;;;;;6346901;22;20427;-92
2021/03/13 10:51:42;;;;;;;17.20;12.27;;;;;;;;;;6348649;22;20486;-92
2021/03/13 10:54:19;;;;;;;16.20;14.03;;;;;;;;;;6352035;22;20421;-91
2021/03/13 10:56:46;;;;;;;18.67;13.30;;;;;;;;;;6350046;22;20410;-92
2021/03/13 10:59:12;;;;;;;14.57;12.27;;;;;;;;;;6345076;22;20407;-90
2021/03/13 11:01:42;;;;;;;14.27;10.90;;;;;;;;;;6343330;22;20418;-90
2021/03/13 11:04:08;;;;;;;13.70;11.10;;;;;;;;;;6348464;22;20455;-95
2021/03/13 11:06:35;;;;;;;13.03;10.87;;;;;;;;;;6347712;22;20443;-93
2021/03/13 11:09:02;;;;;;;14.50;11.70;;;;;;;;;;6342082;22;20403;-90
2021/03/13 11:11:29;;;;;;;12.83;10.93;;;;;;;;;;6342239;22;20407;-88
2021/03/13 11:13:56;;;;;;;12.97;11.50;;;;;;;;;;6348535;22;20431;-92
2021/03/13 11:16:24;;;;;;;11.87;10.60;;;;;;;;;;6348195;22;20878;-95
2021/03/13 11:18:50;;;;;;;11.70;10.50;;;;;;;;;;6349565;22;20484;-94
2021/03/13 11:21:16;;;;;;;10.53;9.43;;;;;;;;;;6348365;22;20424;-92
2021/03/13 11:23:42;;;;;;;12.07;10.77;;;;;;;;;;6351642;22;20403;-91
2021/03/13 11:26:11;;;;;;;11.80;10.30;;;;;;;;;;6349453;22;20935;-93
2021/03/13 11:28:37;;;;;;;11.50;10.30;;;;;;;;;;6350965;22;20403;-94
2021/03/13 11:31:04;;;;;;;12.77;9.90;;;;;;;;;;6350388;22;20460;-92
2021/03/13 11:33:30;;;;;;;10.47;9.37;;;;;;;;;;6350823;22;20407;-89
2021/03/13 11:35:56;;;;;;;11.17;10.00;;;;;;;;;;6347093;22;20417;-93
2021/03/13 11:38:22;;;;;;;10.63;9.17;;;;;;;;;;6346298;22;20415;-90
2021/03/13 11:40:48;;;;;;;11.07;8.83;;;;;;;;;;6345375;22;20422;-91
2021/03/13 11:43:14;;;;;;;13.50;9.07;;;;;;;;;;6349303;22;20527;-92
2021/03/13 11:45:40;;;;;;;12.63;11.00;;;;;;;;;;6350585;22;20468;-92
2021/03/13 11:48:08;;;;;;;11.27;10.03;;;;;;;;;;6348211;22;20988;-90
2021/03/13 11:50:34;;;;;;;15.30;9.87;;;;;;;;;;6349231;22;20403;-91
2021/03/13 11:53:00;;;;;;;11.60;9.73;;;;;;;;;;6347228;22;20437;-92
2021/03/13 11:55:26;;;;;;;13.67;10.40;;;;;;;;;;6350578;22;20528;-92
2021/03/13 11:57:52;;;;;;;12.33;9.27;;;;;;;;;;6349907;22;20407;-94
2021/03/13 12:00:19;;;;;;;10.37;9.27;;;;;;;;;;6351809;22;20797;-93
2021/03/13 12:02:45;;;;;;;11.07;9.87;;;;;;;;;;6348761;22;20464;-92
2021/03/13 12:05:14;;;;;;;10.30;8.97;;;;;;;;;;6349933;22;20419;-91
2021/03/13 12:07:40;;;;;;;12.10;9.07;;;;;;;;;;6348250;22;20406;-91
2021/03/13 12:10:07;;;;;;;9.87;8.87;;;;;;;;;;6350129;22;20403;-91
2021/03/13 12:12:33;;;;;;;9.97;8.97;;;;;;;;;;6347837;22;20411;-91
2021/03/13 12:14:59;;;;;;;9.60;8.80;;;;;;;;;;6349282;22;20440;-90
2021/03/13 12:17:25;;;;;;;13.70;9.00;;;;;;;;;;6347706;22;20856;-93
2021/03/13 12:19:51;;;;;;;8.73;7.90;;;;;;;;;;6348328;22;20403;-91
2021/03/13 12:22:20;;;;;;;9.57;8.60;;;;;;;;;;6347692;22;20460;-91
2021/03/13 12:24:46;;;;;;;9.30;8.40;;;;;;;;;;6349238;22;20491;-91
2021/03/13 12:27:12;;;;;;;9.67;8.67;;;;;;;;;;6348461;22;20902;-89
2021/03/13 12:29:38;;;;;;;9.47;8.47;;;;;;;;;;6345613;22;20399;-90
2021/03/13 12:32:05;;;;;;;10.67;9.57;;;;;;;;;;6347638;22;20411;-91
2021/03/13 12:34:30;;;;;;;10.63;8.40;;;;;;;;;;6348792;22;20395;-92
2021/03/13 12:36:56;;;;;;;10.30;9.20;;;;;;;;;;6349628;22;20502;-93
2021/03/13 12:39:23;;;;;;;15.23;10.20;;;;;;;;;;6347028;22;20478;-91
2021/03/13 12:41:49;;;;;;;12.77;10.30;;;;;;;;;;6349041;22;20418;-93
2021/03/13 12:44:15;;;;;;;13.80;11.30;;;;;;;;;;6348390;22;20406;-91
2021/03/13 12:46:41;;;;;;;12.27;10.50;;;;;;;;;;6349222;22;20446;-92
2021/03/13 12:49:09;;;;;;;12.37;9.33;;;;;;;;;;6347037;22;20434;-91
2021/03/13 12:51:35;;;;;;;10.73;9.53;;;;;;;;;;6349193;22;20483;-91
2021/03/13 12:54:01;;;;;;;9.80;8.70;;;;;;;;;;6348172;22;20415;-92
2021/03/13 12:56:27;;;;;;;12.73;11.00;;;;;;;;;;6349543;22;20436;-92
2021/03/13 12:58:53;;;;;;;10.13;8.47;;;;;;;;;;6349270;22;20411;-91
2021/03/13 13:01:19;;;;;;;12.47;11.37;;;;;;;;;;6349911;22;20811;-91
2021/03/13 13:03:53;;;;;;;13.07;11.83;;;;;;;;;;6349211;22;20423;-91
2021/03/13 13:06:19;;;;;;;10.77;9.67;;;;;;;;;;6349805;22;20442;-92
2021/03/13 13:08:45;;;;;;;10.00;8.60;;;;;;;;;;6350060;22;20964;-91
2021/03/13 13:11:11;;;;;;;9.00;8.20;;;;;;;;;;6349299;22;20436;-91
2021/03/13 13:13:37;;;;;;;8.00;7.17;;;;;;;;;;6348342;22;20476;-92
2021/03/13 13:16:04;;;;;;;8.43;6.73;;;;;;;;;;6345431;22;20807;-92
2021/03/13 13:18:30;;;;;;;8.77;7.97;;;;;;;;;;6348211;22;20524;-91
2021/03/13 13:20:56;;;;;;;8.03;7.30;;;;;;;;;;6347199;22;20410;-91
2021/03/13 13:23:22;;;;;;;8.20;7.40;;;;;;;;;;6349797;22;20403;-91
2021/03/13 13:25:48;;;;;;;8.37;7.63;;;;;;;;;;6349199;22;20447;-90
2021/03/13 13:28:14;;;;;;;7.87;7.07;;;;;;;;;;6349374;22;20400;-91
2021/03/13 13:30:41;;;;;;;10.50;8.60;;;;;;;;;;6347312;22;20464;-91
2021/03/13 13:33:09;;;;;;;12.07;8.90;;;;;;;;;;6348666;22;20419;-91
2021/03/13 13:35:35;;;;;;;11.33;10.10;;;;;;;;;;6348445;22;20400;-91
2021/03/13 13:38:01;;;;;;;10.40;9.30;;;;;;;;;;6348765;22;20442;-92
2021/03/13 13:40:27;;;;;;;10.27;9.20;;;;;;;;;;6347356;22;20706;-91
2021/03/13 13:42:53;;;;;;;9.77;8.77;;;;;;;;;;6348632;22;20419;-91
2021/03/13 13:45:19;;;;;;;8.03;7.00;;;;;;;;;;6347141;22;20781;-91
2021/03/13 13:47:47;;;;;;;7.70;6.90;;;;;;;;;;6346620;22;20437;-90
2021/03/13 13:50:14;;;;;;;8.57;7.80;;;;;;;;;;6346353;22;20409;-90
2021/03/13 13:52:40;;;;;;;11.27;10.13;;;;;;;;;;6345694;22;20404;-92
2021/03/13 13:55:07;;;;;;;12.63;10.20;;;;;;;;;;6349407;22;20408;-92
2021/03/13 13:57:33;;;;;;;10.43;9.30;;;;;;;;;;6346670;22;20401;-89
2021/03/13 13:59:59;;;;;;;11.30;9.40;;;;;;;;;;6348442;22;20460;-90
2021/03/13 14:02:25;;;;;;;8.33;7.47;;;;;;;;;;6345949;22;20506;-91
2021/03/13 14:04:51;;;;;;;8.13;7.33;;;;;;;;;;6347002;22;20734;-90
2021/03/13 14:07:17;;;;;;;7.93;7.17;;;;;;;;;;6345790;22;21039;-90
2021/03/13 14:09:43;;;;;;;6.87;6.30;;;;;;;;;;6349389;22;20403;-91
2021/03/13 14:12:10;;;;;;;10.10;6.80;;;;;;;;;;6348588;22;20446;-91
2021/03/13 14:14:35;;;;;;;8.17;6.00;;;;;;;;;;6349167;22;20740;-91
2021/03/13 14:17:01;;;;;;;7.03;6.33;;;;;;;;;;6348075;22;20501;-91
2021/03/13 14:19:27;;;;;;;6.47;5.87;;;;;;;;;;6347202;22;20412;-87
2021/03/13 14:21:54;;;;;;;7.20;6.20;;;;;;;;;;6345070;22;20403;-91
2021/03/13 14:24:20;;;;;;;6.90;6.17;;;;;;;;;;6347689;22;20409;-90